sensor_id;sensor_type;location;lat;lon;timestamp;P1;durP1;ratioP1;P2;durP2;ratioP2
55728;SDS011;41633;39.720;2.910;2022-09-27T00:03:20;9.18;;;2.05;;
55728;SDS011;41633;39.720;2.910;2022-09-27T00:08:12;8.25;;;2.53;;
55728;SDS011;41633;39.720;2.910;2022-09-27T00:13:05;6.60;;;2.00;;
55728;SDS011;41633;39.720;2.910;2022-09-27T00:17:57;10.93;;;3.08;;
55728;SDS011;41633;39.720;2.910;2022-09-27T00:20:23;10.63;;;3.42;;
55728;SDS011;41633;39.720;2.910;2022-09-27T00:22:50;11.75;;;3.20;;
55728;SDS011;41633;39.720;2.910;2022-09-27T00:25:16;10.57;;;2.90;;
55728;SDS011;41633;39.720;2.910;2022-09-27T00:27:42;7.97;;;2.70;;
55728;SDS011;41633;39.720;2.910;2022-09-27T00:32:34;10.70;;;5.13;;
55728;SDS011;41633;39.720;2.910;2022-09-27T00:35:01;9.18;;;3.33;;
55728;SDS011;41633;39.720;2.910;2022-09-27T00:37:27;8.50;;;2.70;;
55728;SDS011;41633;39.720;2.910;2022-09-27T00:42:19;10.68;;;4.00;;
55728;SDS011;41633;39.720;2.910;2022-09-27T00:44:54;10.63;;;3.42;;
55728;SDS011;41633;39.720;2.910;2022-09-27T00:47:26;11.93;;;3.47;;
55728;SDS011;41633;39.720;2.910;2022-09-27T00:50:37;10.35;;;3.75;;
55728;SDS011;41633;39.720;2.910;2022-09-27T00:52:46;10.23;;;2.92;;
55728;SDS011;41633;39.720;2.910;2022-09-27T00:55:14;9.80;;;2.90;;
55728;SDS011;41633;39.720;2.910;2022-09-27T00:57:43;10.45;;;2.67;;
55728;SDS011;41633;39.720;2.910;2022-09-27T01:00:10;9.80;;;3.25;;
55728;SDS011;41633;39.720;2.910;2022-09-27T01:02:37;9.25;;;2.60;;
55728;SDS011;41633;39.720;2.910;2022-09-27T01:05:05;8.88;;;2.55;;
55728;SDS011;41633;39.720;2.910;2022-09-27T01:07:33;7.07;;;2.60;;
55728;SDS011;41633;39.720;2.910;2022-09-27T01:09:59;8.90;;;2.80;;
55728;SDS011;41633;39.720;2.910;2022-09-27T01:15:07;8.65;;;2.50;;
55728;SDS011;41633;39.720;2.910;2022-09-27T01:25:21;7.75;;;2.30;;
55728;SDS011;41633;39.720;2.910;2022-09-27T01:30:27;11.75;;;2.45;;
55728;SDS011;41633;39.720;2.910;2022-09-27T01:43:06;12.82;;;2.65;;
55728;SDS011;41633;39.720;2.910;2022-09-27T01:45:35;9.38;;;2.22;;
55728;SDS011;41633;39.720;2.910;2022-09-27T01:48:06;7.82;;;1.92;;
55728;SDS011;41633;39.720;2.910;2022-09-27T01:50:41;6.97;;;1.90;;
55728;SDS011;41633;39.720;2.910;2022-09-27T01:53:09;8.38;;;2.13;;
55728;SDS011;41633;39.720;2.910;2022-09-27T01:55:37;9.70;;;2.05;;
55728;SDS011;41633;39.720;2.910;2022-09-27T01:58:51;8.70;;;2.30;;
55728;SDS011;41633;39.720;2.910;2022-09-27T02:00:50;9.15;;;2.13;;
55728;SDS011;41633;39.720;2.910;2022-09-27T02:03:19;6.80;;;1.90;;
55728;SDS011;41633;39.720;2.910;2022-09-27T02:08:19;9.00;;;2.00;;
55728;SDS011;41633;39.720;2.910;2022-09-27T02:10:46;7.85;;;2.03;;
55728;SDS011;41633;39.720;2.910;2022-09-27T02:13:23;9.80;;;2.63;;
55728;SDS011;41633;39.720;2.910;2022-09-27T02:18:22;9.20;;;2.28;;
55728;SDS011;41633;39.720;2.910;2022-09-27T02:20:54;10.95;;;2.83;;
55728;SDS011;41633;39.720;2.910;2022-09-27T02:25:53;9.25;;;2.33;;
55728;SDS011;41633;39.720;2.910;2022-09-27T02:30:50;6.90;;;2.13;;
55728;SDS011;41633;39.720;2.910;2022-09-27T02:35:42;6.80;;;2.20;;
55728;SDS011;41633;39.720;2.910;2022-09-27T02:38:10;8.80;;;2.22;;
55728;SDS011;41633;39.720;2.910;2022-09-27T02:40:41;7.03;;;1.70;;
55728;SDS011;41633;39.720;2.910;2022-09-27T02:43:08;8.93;;;1.90;;
55728;SDS011;41633;39.720;2.910;2022-09-27T02:50:52;6.72;;;2.30;;
55728;SDS011;41633;39.720;2.910;2022-09-27T02:56:08;7.07;;;1.92;;
55728;SDS011;41633;39.720;2.910;2022-09-27T03:03:48;7.45;;;2.10;;
55728;SDS011;41633;39.720;2.910;2022-09-27T03:06:16;7.43;;;2.10;;
55728;SDS011;41633;39.720;2.910;2022-09-27T03:08:44;5.85;;;1.70;;
55728;SDS011;41633;39.720;2.910;2022-09-27T03:11:10;7.65;;;2.03;;
55728;SDS011;41633;39.720;2.910;2022-09-27T03:13:36;8.20;;;1.95;;
55728;SDS011;41633;39.720;2.910;2022-09-27T03:16:04;6.68;;;1.88;;
55728;SDS011;41633;39.720;2.910;2022-09-27T03:18:30;6.05;;;1.42;;
55728;SDS011;41633;39.720;2.910;2022-09-27T03:20:56;7.80;;;1.77;;
55728;SDS011;41633;39.720;2.910;2022-09-27T03:23:22;5.25;;;1.40;;
55728;SDS011;41633;39.720;2.910;2022-09-27T03:28:16;7.93;;;1.63;;
55728;SDS011;41633;39.720;2.910;2022-09-27T03:30:45;6.60;;;1.40;;
55728;SDS011;41633;39.720;2.910;2022-09-27T03:33:11;6.22;;;1.50;;
55728;SDS011;41633;39.720;2.910;2022-09-27T03:35:38;6.95;;;1.63;;
55728;SDS011;41633;39.720;2.910;2022-09-27T03:38:05;7.15;;;1.40;;
55728;SDS011;41633;39.720;2.910;2022-09-27T03:40:32;6.13;;;1.30;;
55728;SDS011;41633;39.720;2.910;2022-09-27T03:42:58;6.38;;;1.45;;
55728;SDS011;41633;39.720;2.910;2022-09-27T03:45:24;4.13;;;1.27;;
55728;SDS011;41633;39.720;2.910;2022-09-27T03:50:16;8.95;;;1.55;;
55728;SDS011;41633;39.720;2.910;2022-09-27T03:55:08;3.83;;;1.30;;
55728;SDS011;41633;39.720;2.910;2022-09-27T03:57:34;6.18;;;1.50;;
55728;SDS011;41633;39.720;2.910;2022-09-27T04:02:26;7.35;;;1.35;;
55728;SDS011;41633;39.720;2.910;2022-09-27T04:07:19;6.72;;;1.42;;
55728;SDS011;41633;39.720;2.910;2022-09-27T04:09:45;5.78;;;1.20;;
55728;SDS011;41633;39.720;2.910;2022-09-27T04:14:37;6.30;;;1.38;;
55728;SDS011;41633;39.720;2.910;2022-09-27T04:17:03;6.18;;;1.25;;
55728;SDS011;41633;39.720;2.910;2022-09-27T04:21:55;8.45;;;1.58;;
55728;SDS011;41633;39.720;2.910;2022-09-27T04:24:21;6.07;;;1.27;;
55728;SDS011;41633;39.720;2.910;2022-09-27T04:26:48;3.95;;;1.10;;
55728;SDS011;41633;39.720;2.910;2022-09-27T04:29:14;5.55;;;1.42;;
55728;SDS011;41633;39.720;2.910;2022-09-27T04:31:40;5.47;;;1.50;;
55728;SDS011;41633;39.720;2.910;2022-09-27T04:34:08;5.30;;;1.50;;
55728;SDS011;41633;39.720;2.910;2022-09-27T04:39:02;8.70;;;1.70;;
55728;SDS011;41633;39.720;2.910;2022-09-27T04:41:29;11.32;;;2.22;;
55728;SDS011;41633;39.720;2.910;2022-09-27T04:43:56;7.88;;;2.38;;
55728;SDS011;41633;39.720;2.910;2022-09-27T04:46:24;8.75;;;2.42;;
55728;SDS011;41633;39.720;2.910;2022-09-27T04:48:50;6.72;;;2.10;;
55728;SDS011;41633;39.720;2.910;2022-09-27T04:53:44;8.35;;;1.90;;
55728;SDS011;41633;39.720;2.910;2022-09-27T04:58:36;9.23;;;1.80;;
55728;SDS011;41633;39.720;2.910;2022-09-27T05:03:29;5.72;;;1.50;;
55728;SDS011;41633;39.720;2.910;2022-09-27T05:05:55;6.45;;;1.70;;
55728;SDS011;41633;39.720;2.910;2022-09-27T05:10:47;6.78;;;1.60;;
55728;SDS011;41633;39.720;2.910;2022-09-27T05:13:14;5.15;;;1.30;;
55728;SDS011;41633;39.720;2.910;2022-09-27T05:18:06;9.10;;;2.15;;
55728;SDS011;41633;39.720;2.910;2022-09-27T05:20:34;7.90;;;1.80;;
55728;SDS011;41633;39.720;2.910;2022-09-27T05:23:00;5.68;;;1.50;;
55728;SDS011;41633;39.720;2.910;2022-09-27T05:25:28;10.20;;;1.60;;
55728;SDS011;41633;39.720;2.910;2022-09-27T05:27:55;7.30;;;1.60;;
55728;SDS011;41633;39.720;2.910;2022-09-27T05:30:22;8.65;;;1.67;;
55728;SDS011;41633;39.720;2.910;2022-09-27T05:32:48;7.75;;;1.50;;
55728;SDS011;41633;39.720;2.910;2022-09-27T05:35:15;5.88;;;1.33;;
55728;SDS011;41633;39.720;2.910;2022-09-27T05:37:51;9.07;;;1.20;;
55728;SDS011;41633;39.720;2.910;2022-09-27T05:40:18;6.15;;;1.25;;
55728;SDS011;41633;39.720;2.910;2022-09-27T05:42:45;4.47;;;1.38;;
55728;SDS011;41633;39.720;2.910;2022-09-27T05:47:38;6.60;;;1.50;;
55728;SDS011;41633;39.720;2.910;2022-09-27T05:50:04;5.72;;;1.13;;
55728;SDS011;41633;39.720;2.910;2022-09-27T05:52:32;5.97;;;1.38;;
55728;SDS011;41633;39.720;2.910;2022-09-27T05:54:59;5.35;;;1.35;;
55728;SDS011;41633;39.720;2.910;2022-09-27T05:57:25;8.23;;;1.52;;
55728;SDS011;41633;39.720;2.910;2022-09-27T05:59:51;8.73;;;1.40;;
55728;SDS011;41633;39.720;2.910;2022-09-27T06:04:43;6.38;;;1.50;;
55728;SDS011;41633;39.720;2.910;2022-09-27T06:07:09;12.48;;;1.73;;
55728;SDS011;41633;39.720;2.910;2022-09-27T06:09:35;9.52;;;1.55;;
55728;SDS011;41633;39.720;2.910;2022-09-27T06:14:27;5.65;;;1.40;;
55728;SDS011;41633;39.720;2.910;2022-09-27T06:16:53;6.03;;;1.60;;
55728;SDS011;41633;39.720;2.910;2022-09-27T06:19:20;6.25;;;1.40;;
55728;SDS011;41633;39.720;2.910;2022-09-27T06:21:48;10.82;;;1.40;;
55728;SDS011;41633;39.720;2.910;2022-09-27T06:24:15;5.20;;;1.20;;
55728;SDS011;41633;39.720;2.910;2022-09-27T06:29:07;6.72;;;1.35;;
55728;SDS011;41633;39.720;2.910;2022-09-27T06:33:59;7.15;;;1.20;;
55728;SDS011;41633;39.720;2.910;2022-09-27T06:38:51;5.32;;;1.30;;
55728;SDS011;41633;39.720;2.910;2022-09-27T06:41:17;7.25;;;1.48;;
55728;SDS011;41633;39.720;2.910;2022-09-27T06:46:09;6.60;;;1.60;;
55728;SDS011;41633;39.720;2.910;2022-09-27T06:51:02;6.38;;;1.48;;
55728;SDS011;41633;39.720;2.910;2022-09-27T06:55:57;6.38;;;1.38;;
55728;SDS011;41633;39.720;2.910;2022-09-27T06:58:25;8.95;;;1.58;;
55728;SDS011;41633;39.720;2.910;2022-09-27T07:01:10;8.10;;;1.55;;
55728;SDS011;41633;39.720;2.910;2022-09-27T07:03:37;5.95;;;1.33;;
55728;SDS011;41633;39.720;2.910;2022-09-27T07:06:06;9.00;;;1.48;;
55728;SDS011;41633;39.720;2.910;2022-09-27T07:08:32;10.27;;;1.42;;
55728;SDS011;41633;39.720;2.910;2022-09-27T07:11:00;8.93;;;1.85;;
55728;SDS011;41633;39.720;2.910;2022-09-27T07:13:27;6.75;;;1.00;;
55728;SDS011;41633;39.720;2.910;2022-09-27T07:15:58;5.18;;;1.00;;
55728;SDS011;41633;39.720;2.910;2022-09-27T07:18:24;8.63;;;1.13;;
55728;SDS011;41633;39.720;2.910;2022-09-27T07:20:51;5.78;;;1.00;;
55728;SDS011;41633;39.720;2.910;2022-09-27T07:23:17;5.78;;;1.10;;
55728;SDS011;41633;39.720;2.910;2022-09-27T07:25:44;4.15;;;1.20;;
55728;SDS011;41633;39.720;2.910;2022-09-27T07:30:36;6.20;;;1.40;;
55728;SDS011;41633;39.720;2.910;2022-09-27T07:35:28;6.07;;;1.40;;
55728;SDS011;41633;39.720;2.910;2022-09-27T07:37:55;6.82;;;0.95;;
55728;SDS011;41633;39.720;2.910;2022-09-27T07:40:22;7.10;;;0.90;;
55728;SDS011;41633;39.720;2.910;2022-09-27T07:42:55;5.38;;;1.20;;
55728;SDS011;41633;39.720;2.910;2022-09-27T07:45:21;5.45;;;0.98;;
55728;SDS011;41633;39.720;2.910;2022-09-27T07:50:14;6.18;;;1.33;;
55728;SDS011;41633;39.720;2.910;2022-09-27T07:52:41;6.45;;;1.30;;
55728;SDS011;41633;39.720;2.910;2022-09-27T07:55:08;5.15;;;1.10;;
55728;SDS011;41633;39.720;2.910;2022-09-27T07:57:35;7.45;;;1.40;;
55728;SDS011;41633;39.720;2.910;2022-09-27T08:00:02;6.25;;;1.23;;
55728;SDS011;41633;39.720;2.910;2022-09-27T08:02:28;5.07;;;1.00;;
55728;SDS011;41633;39.720;2.910;2022-09-27T08:04:57;6.35;;;1.20;;
55728;SDS011;41633;39.720;2.910;2022-09-27T08:07:23;7.43;;;1.10;;
55728;SDS011;41633;39.720;2.910;2022-09-27T08:12:16;7.10;;;1.08;;
55728;SDS011;41633;39.720;2.910;2022-09-27T08:14:42;6.35;;;1.00;;
55728;SDS011;41633;39.720;2.910;2022-09-27T08:19:34;7.00;;;1.05;;
55728;SDS011;41633;39.720;2.910;2022-09-27T08:22:00;4.60;;;1.00;;
55728;SDS011;41633;39.720;2.910;2022-09-27T08:26:53;6.38;;;0.90;;
55728;SDS011;41633;39.720;2.910;2022-09-27T08:29:22;4.97;;;0.85;;
55728;SDS011;41633;39.720;2.910;2022-09-27T08:34:14;4.25;;;0.80;;
55728;SDS011;41633;39.720;2.910;2022-09-27T08:36:41;9.15;;;1.42;;
55728;SDS011;41633;39.720;2.910;2022-09-27T08:39:08;6.20;;;1.15;;
55728;SDS011;41633;39.720;2.910;2022-09-27T08:41:38;5.07;;;1.00;;
55728;SDS011;41633;39.720;2.910;2022-09-27T08:51:49;6.38;;;1.27;;
55728;SDS011;41633;39.720;2.910;2022-09-27T08:54:18;5.00;;;1.00;;
55728;SDS011;41633;39.720;2.910;2022-09-27T08:56:46;4.82;;;0.90;;
55728;SDS011;41633;39.720;2.910;2022-09-27T08:59:16;4.28;;;0.88;;
55728;SDS011;41633;39.720;2.910;2022-09-27T09:01:46;5.75;;;0.80;;
55728;SDS011;41633;39.720;2.910;2022-09-27T09:04:14;5.90;;;0.80;;
55728;SDS011;41633;39.720;2.910;2022-09-27T09:09:55;3.67;;;0.90;;
55728;SDS011;41633;39.720;2.910;2022-09-27T09:23:20;7.93;;;1.20;;
55728;SDS011;41633;39.720;2.910;2022-09-27T09:26:05;7.18;;;0.90;;
55728;SDS011;41633;39.720;2.910;2022-09-27T09:33:36;6.28;;;0.70;;
55728;SDS011;41633;39.720;2.910;2022-09-27T09:38:36;4.18;;;0.80;;
55728;SDS011;41633;39.720;2.910;2022-09-27T09:43:44;3.83;;;0.77;;
55728;SDS011;41633;39.720;2.910;2022-09-27T09:46:13;5.68;;;0.85;;
55728;SDS011;41633;39.720;2.910;2022-09-27T09:48:50;4.00;;;0.77;;
55728;SDS011;41633;39.720;2.910;2022-09-27T09:51:21;3.53;;;0.77;;
55728;SDS011;41633;39.720;2.910;2022-09-27T09:56:16;20.35;;;1.85;;
55728;SDS011;41633;39.720;2.910;2022-09-27T09:58:47;7.15;;;0.98;;
55728;SDS011;41633;39.720;2.910;2022-09-27T10:03:44;4.95;;;0.85;;
55728;SDS011;41633;39.720;2.910;2022-09-27T10:06:11;4.70;;;0.90;;
55728;SDS011;41633;39.720;2.910;2022-09-27T10:08:38;5.97;;;0.98;;
55728;SDS011;41633;39.720;2.910;2022-09-27T10:11:05;7.75;;;1.67;;
55728;SDS011;41633;39.720;2.910;2022-09-27T10:13:32;6.35;;;1.15;;
55728;SDS011;41633;39.720;2.910;2022-09-27T10:16:04;16.58;;;1.88;;
55728;SDS011;41633;39.720;2.910;2022-09-27T10:18:30;10.93;;;1.50;;
55728;SDS011;41633;39.720;2.910;2022-09-27T10:21:00;7.70;;;1.40;;
55728;SDS011;41633;39.720;2.910;2022-09-27T10:23:28;7.85;;;1.10;;
55728;SDS011;41633;39.720;2.910;2022-09-27T10:25:56;8.32;;;1.50;;
55728;SDS011;41633;39.720;2.910;2022-09-27T10:31:12;6.65;;;1.40;;
55728;SDS011;41633;39.720;2.910;2022-09-27T10:36:24;19.55;;;2.47;;
55728;SDS011;41633;39.720;2.910;2022-09-27T10:38:55;11.23;;;1.67;;
55728;SDS011;41633;39.720;2.910;2022-09-27T10:41:25;7.88;;;1.13;;
55728;SDS011;41633;39.720;2.910;2022-09-27T10:43:56;4.47;;;0.93;;
55728;SDS011;41633;39.720;2.910;2022-09-27T10:46:31;8.73;;;1.30;;
55728;SDS011;41633;39.720;2.910;2022-09-27T10:49:08;5.90;;;0.90;;
55728;SDS011;41633;39.720;2.910;2022-09-27T10:51:36;6.00;;;1.05;;
55728;SDS011;41633;39.720;2.910;2022-09-27T10:54:03;12.00;;;1.25;;
55728;SDS011;41633;39.720;2.910;2022-09-27T10:56:30;5.18;;;1.10;;
55728;SDS011;41633;39.720;2.910;2022-09-27T10:58:57;8.35;;;1.33;;
55728;SDS011;41633;39.720;2.910;2022-09-27T11:01:38;4.85;;;1.00;;
55728;SDS011;41633;39.720;2.910;2022-09-27T11:04:05;7.70;;;1.00;;
55728;SDS011;41633;39.720;2.910;2022-09-27T11:06:32;5.20;;;0.60;;
55728;SDS011;41633;39.720;2.910;2022-09-27T11:09:09;6.07;;;1.00;;
55728;SDS011;41633;39.720;2.910;2022-09-27T11:11:37;5.35;;;1.13;;
55728;SDS011;41633;39.720;2.910;2022-09-27T11:19:21;3.90;;;0.90;;
55728;SDS011;41633;39.720;2.910;2022-09-27T11:30:31;5.63;;;0.95;;
55728;SDS011;41633;39.720;2.910;2022-09-27T11:37:40;6.00;;;1.00;;
55728;SDS011;41633;39.720;2.910;2022-09-27T12:10:53;4.82;;;1.42;;
55728;SDS011;41633;39.720;2.910;2022-09-27T12:13:27;9.38;;;1.23;;
55728;SDS011;41633;39.720;2.910;2022-09-27T12:15:56;5.57;;;1.00;;
55728;SDS011;41633;39.720;2.910;2022-09-27T12:18:30;7.45;;;1.00;;
55728;SDS011;41633;39.720;2.910;2022-09-27T12:21:01;4.90;;;1.10;;
55728;SDS011;41633;39.720;2.910;2022-09-27T12:23:31;5.05;;;1.23;;
55728;SDS011;41633;39.720;2.910;2022-09-27T12:26:02;10.05;;;1.83;;
55728;SDS011;41633;39.720;2.910;2022-09-27T12:31:26;9.23;;;2.08;;
55728;SDS011;41633;39.720;2.910;2022-09-27T12:36:24;3.63;;;0.93;;
55728;SDS011;41633;39.720;2.910;2022-09-27T12:41:38;8.70;;;1.02;;
55728;SDS011;41633;39.720;2.910;2022-09-27T12:44:07;6.97;;;1.52;;
55728;SDS011;41633;39.720;2.910;2022-09-27T12:46:42;10.40;;;2.00;;
55728;SDS011;41633;39.720;2.910;2022-09-27T12:51:40;6.68;;;1.75;;
55728;SDS011;41633;39.720;2.910;2022-09-27T12:56:42;5.93;;;1.25;;
55728;SDS011;41633;39.720;2.910;2022-09-27T13:02:12;6.53;;;1.80;;
55728;SDS011;41633;39.720;2.910;2022-09-27T13:09:27;8.05;;;1.48;;
55728;SDS011;41633;39.720;2.910;2022-09-27T13:14:25;8.57;;;1.27;;
55728;SDS011;41633;39.720;2.910;2022-09-27T13:16:52;10.52;;;1.20;;
55728;SDS011;41633;39.720;2.910;2022-09-27T13:19:40;5.18;;;1.30;;
55728;SDS011;41633;39.720;2.910;2022-09-27T13:22:52;9.90;;;1.33;;
55728;SDS011;41633;39.720;2.910;2022-09-27T13:29:50;8.05;;;1.55;;
55728;SDS011;41633;39.720;2.910;2022-09-27T13:32:23;4.75;;;0.90;;
55728;SDS011;41633;39.720;2.910;2022-09-27T13:39:45;5.88;;;1.35;;
55728;SDS011;41633;39.720;2.910;2022-09-27T13:47:35;5.75;;;1.20;;
55728;SDS011;41633;39.720;2.910;2022-09-27T13:50:23;6.13;;;1.33;;
55728;SDS011;41633;39.720;2.910;2022-09-27T14:00:42;9.02;;;1.08;;
55728;SDS011;41633;39.720;2.910;2022-09-27T14:05:45;7.15;;;1.17;;
55728;SDS011;41633;39.720;2.910;2022-09-27T14:10:50;7.47;;;1.58;;
55728;SDS011;41633;39.720;2.910;2022-09-27T14:13:18;8.93;;;1.55;;
55728;SDS011;41633;39.720;2.910;2022-09-27T14:15:44;5.68;;;1.05;;
55728;SDS011;41633;39.720;2.910;2022-09-27T14:18:11;5.55;;;1.02;;
55728;SDS011;41633;39.720;2.910;2022-09-27T14:20:41;6.15;;;1.23;;
55728;SDS011;41633;39.720;2.910;2022-09-27T14:23:20;7.95;;;1.00;;
55728;SDS011;41633;39.720;2.910;2022-09-27T14:25:48;5.90;;;1.20;;
55728;SDS011;41633;39.720;2.910;2022-09-27T14:28:18;8.32;;;1.30;;
55728;SDS011;41633;39.720;2.910;2022-09-27T14:30:45;3.72;;;0.80;;
55728;SDS011;41633;39.720;2.910;2022-09-27T14:33:31;4.72;;;0.90;;
55728;SDS011;41633;39.720;2.910;2022-09-27T14:38:43;7.70;;;0.95;;
55728;SDS011;41633;39.720;2.910;2022-09-27T14:41:12;7.03;;;1.00;;
55728;SDS011;41633;39.720;2.910;2022-09-27T14:43:43;7.53;;;1.17;;
55728;SDS011;41633;39.720;2.910;2022-09-27T14:46:27;4.78;;;0.77;;
55728;SDS011;41633;39.720;2.910;2022-09-27T14:48:53;5.47;;;0.93;;
55728;SDS011;41633;39.720;2.910;2022-09-27T14:51:24;7.15;;;1.00;;
55728;SDS011;41633;39.720;2.910;2022-09-27T14:53:51;6.35;;;1.00;;
55728;SDS011;41633;39.720;2.910;2022-09-27T14:56:28;6.97;;;1.40;;
55728;SDS011;41633;39.720;2.910;2022-09-27T14:59:03;9.13;;;0.90;;
55728;SDS011;41633;39.720;2.910;2022-09-27T15:01:33;7.63;;;0.98;;
55728;SDS011;41633;39.720;2.910;2022-09-27T15:04:05;9.73;;;1.02;;
55728;SDS011;41633;39.720;2.910;2022-09-27T15:06:35;8.25;;;1.13;;
55728;SDS011;41633;39.720;2.910;2022-09-27T15:09:02;6.93;;;1.15;;
55728;SDS011;41633;39.720;2.910;2022-09-27T15:11:28;5.35;;;0.90;;
55728;SDS011;41633;39.720;2.910;2022-09-27T15:13:58;4.55;;;0.90;;
55728;SDS011;41633;39.720;2.910;2022-09-27T15:16:27;8.57;;;1.00;;
55728;SDS011;41633;39.720;2.910;2022-09-27T15:19:04;7.80;;;1.25;;
55728;SDS011;41633;39.720;2.910;2022-09-27T15:21:32;9.00;;;1.45;;
55728;SDS011;41633;39.720;2.910;2022-09-27T15:23:58;6.65;;;1.33;;
55728;SDS011;41633;39.720;2.910;2022-09-27T15:26:46;10.50;;;1.25;;
55728;SDS011;41633;39.720;2.910;2022-09-27T15:29:19;6.90;;;1.15;;
55728;SDS011;41633;39.720;2.910;2022-09-27T15:31:55;6.57;;;1.20;;
55728;SDS011;41633;39.720;2.910;2022-09-27T15:34:23;8.80;;;1.50;;
55728;SDS011;41633;39.720;2.910;2022-09-27T15:36:59;7.20;;;1.50;;
55728;SDS011;41633;39.720;2.910;2022-09-27T15:47:01;5.80;;;1.02;;
55728;SDS011;41633;39.720;2.910;2022-09-27T15:49:29;7.45;;;1.20;;
55728;SDS011;41633;39.720;2.910;2022-09-27T15:51:56;5.32;;;0.88;;
55728;SDS011;41633;39.720;2.910;2022-09-27T15:54:24;5.85;;;1.02;;
55728;SDS011;41633;39.720;2.910;2022-09-27T15:56:51;6.38;;;0.95;;
55728;SDS011;41633;39.720;2.910;2022-09-27T16:01:46;4.82;;;0.80;;
55728;SDS011;41633;39.720;2.910;2022-09-27T16:04:12;9.15;;;1.38;;
55728;SDS011;41633;39.720;2.910;2022-09-27T16:06:38;7.63;;;1.20;;
55728;SDS011;41633;39.720;2.910;2022-09-27T16:09:24;6.47;;;1.00;;
55728;SDS011;41633;39.720;2.910;2022-09-27T16:11:50;5.57;;;1.08;;
55728;SDS011;41633;39.720;2.910;2022-09-27T16:14:17;7.05;;;1.30;;
55728;SDS011;41633;39.720;2.910;2022-09-27T16:16:54;3.63;;;0.93;;
55728;SDS011;41633;39.720;2.910;2022-09-27T16:19:21;8.35;;;1.20;;
55728;SDS011;41633;39.720;2.910;2022-09-27T16:21:47;7.20;;;1.48;;
55728;SDS011;41633;39.720;2.910;2022-09-27T16:24:13;8.18;;;1.38;;
55728;SDS011;41633;39.720;2.910;2022-09-27T16:26:43;7.47;;;1.20;;
55728;SDS011;41633;39.720;2.910;2022-09-27T16:29:10;6.45;;;1.13;;
55728;SDS011;41633;39.720;2.910;2022-09-27T16:31:37;9.90;;;1.10;;
55728;SDS011;41633;39.720;2.910;2022-09-27T16:34:04;10.55;;;1.45;;
55728;SDS011;41633;39.720;2.910;2022-09-27T16:36:30;4.05;;;1.08;;
55728;SDS011;41633;39.720;2.910;2022-09-27T16:38:56;7.13;;;1.58;;
55728;SDS011;41633;39.720;2.910;2022-09-27T16:41:22;7.57;;;1.13;;
55728;SDS011;41633;39.720;2.910;2022-09-27T16:43:48;6.90;;;1.30;;
55728;SDS011;41633;39.720;2.910;2022-09-27T16:46:15;6.10;;;1.30;;
55728;SDS011;41633;39.720;2.910;2022-09-27T16:48:44;6.85;;;1.13;;
55728;SDS011;41633;39.720;2.910;2022-09-27T16:51:14;4.65;;;1.20;;
55728;SDS011;41633;39.720;2.910;2022-09-27T16:54:00;7.75;;;1.40;;
55728;SDS011;41633;39.720;2.910;2022-09-27T16:56:26;7.32;;;1.10;;
55728;SDS011;41633;39.720;2.910;2022-09-27T16:58:53;6.22;;;1.08;;
55728;SDS011;41633;39.720;2.910;2022-09-27T17:01:19;6.82;;;1.20;;
55728;SDS011;41633;39.720;2.910;2022-09-27T17:03:49;5.00;;;1.08;;
55728;SDS011;41633;39.720;2.910;2022-09-27T17:06:16;4.22;;;0.90;;
55728;SDS011;41633;39.720;2.910;2022-09-27T17:08:42;5.93;;;1.08;;
55728;SDS011;41633;39.720;2.910;2022-09-27T17:11:10;4.32;;;1.00;;
55728;SDS011;41633;39.720;2.910;2022-09-27T17:13:38;8.70;;;1.67;;
55728;SDS011;41633;39.720;2.910;2022-09-27T17:16:04;7.18;;;1.20;;
55728;SDS011;41633;39.720;2.910;2022-09-27T17:18:31;4.78;;;1.02;;
55728;SDS011;41633;39.720;2.910;2022-09-27T17:21:00;5.03;;;0.85;;
55728;SDS011;41633;39.720;2.910;2022-09-27T17:23:27;6.97;;;1.30;;
55728;SDS011;41633;39.720;2.910;2022-09-27T17:25:54;10.57;;;2.30;;
55728;SDS011;41633;39.720;2.910;2022-09-27T17:28:21;7.53;;;2.22;;
55728;SDS011;41633;39.720;2.910;2022-09-27T17:30:48;9.35;;;2.67;;
55728;SDS011;41633;39.720;2.910;2022-09-27T17:33:17;9.77;;;2.60;;
55728;SDS011;41633;39.720;2.910;2022-09-27T17:35:44;12.07;;;2.63;;
55728;SDS011;41633;39.720;2.910;2022-09-27T17:38:11;9.40;;;1.70;;
55728;SDS011;41633;39.720;2.910;2022-09-27T17:40:37;6.55;;;1.55;;
55728;SDS011;41633;39.720;2.910;2022-09-27T17:43:03;7.75;;;1.52;;
55728;SDS011;41633;39.720;2.910;2022-09-27T17:45:30;7.22;;;1.50;;
55728;SDS011;41633;39.720;2.910;2022-09-27T17:47:56;6.55;;;1.42;;
55728;SDS011;41633;39.720;2.910;2022-09-27T17:50:44;6.55;;;1.30;;
55728;SDS011;41633;39.720;2.910;2022-09-27T17:53:10;8.30;;;1.67;;
55728;SDS011;41633;39.720;2.910;2022-09-27T17:55:36;11.32;;;1.58;;
55728;SDS011;41633;39.720;2.910;2022-09-27T17:58:02;5.53;;;1.50;;
55728;SDS011;41633;39.720;2.910;2022-09-27T18:00:29;8.07;;;1.63;;
55728;SDS011;41633;39.720;2.910;2022-09-27T18:02:55;9.10;;;1.90;;
55728;SDS011;41633;39.720;2.910;2022-09-27T18:05:27;7.07;;;1.88;;
55728;SDS011;41633;39.720;2.910;2022-09-27T18:07:53;8.10;;;1.50;;
55728;SDS011;41633;39.720;2.910;2022-09-27T18:10:20;8.55;;;1.92;;
55728;SDS011;41633;39.720;2.910;2022-09-27T18:12:46;9.18;;;1.40;;
55728;SDS011;41633;39.720;2.910;2022-09-27T18:15:12;8.60;;;2.25;;
55728;SDS011;41633;39.720;2.910;2022-09-27T18:17:42;10.10;;;1.98;;
55728;SDS011;41633;39.720;2.910;2022-09-27T18:20:09;9.65;;;2.05;;
55728;SDS011;41633;39.720;2.910;2022-09-27T18:22:36;11.18;;;1.90;;
55728;SDS011;41633;39.720;2.910;2022-09-27T18:25:03;6.88;;;1.65;;
55728;SDS011;41633;39.720;2.910;2022-09-27T18:27:29;10.50;;;2.40;;
55728;SDS011;41633;39.720;2.910;2022-09-27T18:29:56;8.80;;;2.15;;
55728;SDS011;41633;39.720;2.910;2022-09-27T18:32:24;10.45;;;2.03;;
55728;SDS011;41633;39.720;2.910;2022-09-27T18:34:50;8.38;;;1.80;;
55728;SDS011;41633;39.720;2.910;2022-09-27T18:37:16;8.75;;;1.80;;
55728;SDS011;41633;39.720;2.910;2022-09-27T18:42:08;13.38;;;2.63;;
55728;SDS011;41633;39.720;2.910;2022-09-27T18:44:34;7.28;;;2.00;;
55728;SDS011;41633;39.720;2.910;2022-09-27T18:47:00;10.98;;;2.42;;
55728;SDS011;41633;39.720;2.910;2022-09-27T18:49:26;8.48;;;2.17;;
55728;SDS011;41633;39.720;2.910;2022-09-27T18:54:20;12.50;;;2.30;;
55728;SDS011;41633;39.720;2.910;2022-09-27T18:56:47;10.68;;;2.00;;
55728;SDS011;41633;39.720;2.910;2022-09-27T18:59:14;10.95;;;2.42;;
55728;SDS011;41633;39.720;2.910;2022-09-27T19:01:41;9.70;;;2.67;;
55728;SDS011;41633;39.720;2.910;2022-09-27T19:04:12;10.88;;;2.60;;
55728;SDS011;41633;39.720;2.910;2022-09-27T19:06:39;12.05;;;2.47;;
55728;SDS011;41633;39.720;2.910;2022-09-27T19:09:06;10.80;;;2.58;;
55728;SDS011;41633;39.720;2.910;2022-09-27T19:11:32;12.07;;;2.10;;
55728;SDS011;41633;39.720;2.910;2022-09-27T19:13:58;13.98;;;3.22;;
55728;SDS011;41633;39.720;2.910;2022-09-27T19:16:25;12.57;;;3.40;;
55728;SDS011;41633;39.720;2.910;2022-09-27T19:18:51;11.50;;;3.30;;
55728;SDS011;41633;39.720;2.910;2022-09-27T19:21:19;10.57;;;2.78;;
55728;SDS011;41633;39.720;2.910;2022-09-27T19:23:45;11.00;;;2.78;;
55728;SDS011;41633;39.720;2.910;2022-09-27T19:26:14;11.02;;;3.55;;
55728;SDS011;41633;39.720;2.910;2022-09-27T19:28:41;10.98;;;3.03;;
55728;SDS011;41633;39.720;2.910;2022-09-27T19:31:26;11.38;;;2.45;;
55728;SDS011;41633;39.720;2.910;2022-09-27T19:33:53;14.68;;;3.45;;
55728;SDS011;41633;39.720;2.910;2022-09-27T19:36:22;8.02;;;2.60;;
55728;SDS011;41633;39.720;2.910;2022-09-27T19:38:51;13.18;;;3.17;;
55728;SDS011;41633;39.720;2.910;2022-09-27T19:41:25;12.88;;;3.42;;
55728;SDS011;41633;39.720;2.910;2022-09-27T19:43:55;11.38;;;3.47;;
55728;SDS011;41633;39.720;2.910;2022-09-27T19:46:22;11.80;;;3.20;;
55728;SDS011;41633;39.720;2.910;2022-09-27T19:48:48;10.32;;;2.50;;